sensor_id;sensor_type;location;lat;lon;timestamp;pressure;altitude;pressure_sealevel;temperature;humidity
37066;BME280;22981;43.080;25.550;2023-04-25T00:01:30;98835.59;;;13.08;76.54
37066;BME280;22981;43.080;25.550;2023-04-25T00:04:00;98832.65;;;13.10;76.65
37066;BME280;22981;43.080;25.550;2023-04-25T00:06:27;98828.07;;;13.08;76.83
37066;BME280;22981;43.080;25.550;2023-04-25T00:08:56;98814.28;;;13.01;76.97
37066;BME280;22981;43.080;25.550;2023-04-25T00:11:24;98822.33;;;12.99;77.01
37066;BME280;22981;43.080;25.550;2023-04-25T00:13:51;98802.94;;;12.94;77.13
37066;BME280;22981;43.080;25.550;2023-04-25T00:16:19;98799.72;;;12.97;77.20
37066;BME280;22981;43.080;25.550;2023-04-25T00:18:46;98797.61;;;12.99;77.16
37066;BME280;22981;43.080;25.550;2023-04-25T00:21:16;98795.14;;;12.95;77.22
37066;BME280;22981;43.080;25.550;2023-04-25T00:23:44;98789.99;;;12.91;77.35
37066;BME280;22981;43.080;25.550;2023-04-25T00:26:12;98784.08;;;12.89;77.41
37066;BME280;22981;43.080;25.550;2023-04-25T00:28:40;98780.55;;;12.89;77.49
37066;BME280;22981;43.080;25.550;2023-04-25T00:31:08;98778.71;;;12.92;77.48
37066;BME280;22981;43.080;25.550;2023-04-25T00:33:36;98773.06;;;12.91;77.53
37066;BME280;22981;43.080;25.550;2023-04-25T00:36:03;98771.19;;;12.91;77.70
37066;BME280;22981;43.080;25.550;2023-04-25T00:38:31;98769.31;;;12.92;77.82
37066;BME280;22981;43.080;25.550;2023-04-25T00:40:58;98776.02;;;12.89;77.89
37066;BME280;22981;43.080;25.550;2023-04-25T00:43:27;98781.08;;;12.86;77.98
37066;BME280;22981;43.080;25.550;2023-04-25T00:45:56;98772.16;;;12.83;78.11
37066;BME280;22981;43.080;25.550;2023-04-25T00:48:24;98778.94;;;12.88;78.14
37066;BME280;22981;43.080;25.550;2023-04-25T00:50:59;98769.03;;;12.91;78.07
37066;BME280;22981;43.080;25.550;2023-04-25T00:53:27;98774.72;;;12.94;78.06
37066;BME280;22981;43.080;25.550;2023-04-25T00:55:55;98770.16;;;12.95;78.05
37066;BME280;22981;43.080;25.550;2023-04-25T00:58:23;98769.62;;;12.95;78.07
37066;BME280;22981;43.080;25.550;2023-04-25T01:00:52;98762.63;;;12.94;78.20
37066;BME280;22981;43.080;25.550;2023-04-25T01:03:20;98754.80;;;12.93;78.31
37066;BME280;22981;43.080;25.550;2023-04-25T01:05:48;98747.58;;;12.93;78.38
37066;BME280;22981;43.080;25.550;2023-04-25T01:08:15;98743.55;;;12.93;78.41
37066;BME280;22981;43.080;25.550;2023-04-25T01:10:43;98738.98;;;12.94;78.50
37066;BME280;22981;43.080;25.550;2023-04-25T01:13:11;98736.58;;;12.95;78.56
37066;BME280;22981;43.080;25.550;2023-04-25T01:15:38;98733.62;;;12.94;78.55
37066;BME280;22981;43.080;25.550;2023-04-25T01:18:07;98734.65;;;12.90;78.61
37066;BME280;22981;43.080;25.550;2023-04-25T01:20:34;98724.97;;;12.89;78.74
37066;BME280;22981;43.080;25.550;2023-04-25T01:23:02;98727.66;;;12.89;78.77
37066;BME280;22981;43.080;25.550;2023-04-25T01:25:30;98721.34;;;12.78;78.86
37066;BME280;22981;43.080;25.550;2023-04-25T01:27:59;98717.81;;;12.75;79.00
37066;BME280;22981;43.080;25.550;2023-04-25T01:30:27;98716.52;;;12.78;79.00
37066;BME280;22981;43.080;25.550;2023-04-25T01:32:57;98713.03;;;12.80;78.94
37066;BME280;22981;43.080;25.550;2023-04-25T01:35:26;98710.92;;;12.82;78.88
37066;BME280;22981;43.080;25.550;2023-04-25T01:37:53;98694.00;;;12.82;78.87
37066;BME280;22981;43.080;25.550;2023-04-25T01:40:21;98684.33;;;12.83;78.90
37066;BME280;22981;43.080;25.550;2023-04-25T01:42:49;98676.84;;;12.85;78.93
37066;BME280;22981;43.080;25.550;2023-04-25T01:45:17;98669.91;;;12.89;78.78
37066;BME280;22981;43.080;25.550;2023-04-25T01:47:45;98671.52;;;12.90;78.75
37066;BME280;22981;43.080;25.550;2023-04-25T01:50:15;98665.64;;;12.93;78.72
37066;BME280;22981;43.080;25.550;2023-04-25T01:52:42;98675.05;;;12.93;78.76
37066;BME280;22981;43.080;25.550;2023-04-25T01:55:10;98672.87;;;12.93;78.85
37066;BME280;22981;43.080;25.550;2023-04-25T01:57:38;98658.93;;;12.93;78.98
37066;BME280;22981;43.080;25.550;2023-04-25T02:00:07;98664.58;;;12.94;79.00
37066;BME280;22981;43.080;25.550;2023-04-25T02:02:35;98647.65;;;12.94;79.10
37066;BME280;22981;43.080;25.550;2023-04-25T02:05:03;98651.14;;;12.97;79.03
37066;BME280;22981;43.080;25.550;2023-04-25T02:07:31;98640.93;;;12.94;79.05
37066;BME280;22981;43.080;25.550;2023-04-25T02:09:59;98639.33;;;12.95;79.07
37066;BME280;22981;43.080;25.550;2023-04-25T02:12:27;98632.34;;;12.94;79.11
37066;BME280;22981;43.080;25.550;2023-04-25T02:14:55;98642.01;;;12.95;79.26
37066;BME280;22981;43.080;25.550;2023-04-25T02:17:22;98631.53;;;12.94;79.38
37066;BME280;22981;43.080;25.550;2023-04-25T02:19:50;98629.34;;;12.91;79.49
37066;BME280;22981;43.080;25.550;2023-04-25T02:22:18;98626.89;;;12.87;79.71
37066;BME280;22981;43.080;25.550;2023-04-25T02:24:46;98620.67;;;12.84;79.83
37066;BME280;22981;43.080;25.550;2023-04-25T02:27:13;98622.52;;;12.78;79.93
37066;BME280;22981;43.080;25.550;2023-04-25T02:29:41;98620.55;;;12.71;80.25
37066;BME280;22981;43.080;25.550;2023-04-25T02:32:09;98627.80;;;12.70;80.41
37066;BME280;22981;43.080;25.550;2023-04-25T02:34:36;98625.61;;;12.65;80.43
37066;BME280;22981;43.080;25.550;2023-04-25T02:37:04;98624.27;;;12.65;80.50
37066;BME280;22981;43.080;25.550;2023-04-25T02:39:31;98624.04;;;12.69;80.46
37066;BME280;22981;43.080;25.550;2023-04-25T02:41:59;98624.80;;;12.67;80.41
37066;BME280;22981;43.080;25.550;2023-04-25T02:44:27;98620.51;;;12.66;80.41
37066;BME280;22981;43.080;25.550;2023-04-25T02:46:54;98620.77;;;12.64;80.29
37066;BME280;22981;43.080;25.550;2023-04-25T02:49:22;98623.69;;;12.63;80.33
37066;BME280;22981;43.080;25.550;2023-04-25T02:51:50;98615.90;;;12.61;80.27
37066;BME280;22981;43.080;25.550;2023-04-25T02:54:17;98617.24;;;12.61;80.24
37066;BME280;22981;43.080;25.550;2023-04-25T02:56:45;98621.80;;;12.61;80.25
37066;BME280;22981;43.080;25.550;2023-04-25T02:59:12;98626.06;;;12.57;80.30
37066;BME280;22981;43.080;25.550;2023-04-25T03:01:40;98627.13;;;12.56;80.30
37066;BME280;22981;43.080;25.550;2023-04-25T03:04:07;98631.39;;;12.54;80.32
37066;BME280;22981;43.080;25.550;2023-04-25T03:06:35;98641.86;;;12.53;80.38
37066;BME280;22981;43.080;25.550;2023-04-25T03:09:02;98648.02;;;12.51;80.39
37066;BME280;22981;43.080;25.550;2023-04-25T03:11:30;98650.08;;;12.44;80.38
37066;BME280;22981;43.080;25.550;2023-04-25T03:13:57;98651.64;;;12.40;80.37
37066;BME280;22981;43.080;25.550;2023-04-25T03:16:25;98648.09;;;12.34;80.47
37066;BME280;22981;43.080;25.550;2023-04-25T03:18:53;98648.33;;;12.33;80.53
37066;BME280;22981;43.080;25.550;2023-04-25T03:21:20;98652.62;;;12.31;80.53
37066;BME280;22981;43.080;25.550;2023-04-25T03:23:48;98653.70;;;12.33;80.51
37066;BME280;22981;43.080;25.550;2023-04-25T03:26:15;98657.73;;;12.33;80.51
37066;BME280;22981;43.080;25.550;2023-04-25T03:28:43;98659.86;;;12.31;80.55
37066;BME280;22981;43.080;25.550;2023-04-25T03:31:11;98657.98;;;12.31;80.54
37066;BME280;22981;43.080;25.550;2023-04-25T03:33:38;98655.03;;;12.30;80.58
37066;BME280;22981;43.080;25.550;2023-04-25T03:36:06;98663.39;;;12.34;80.63
37066;BME280;22981;43.080;25.550;2023-04-25T03:38:34;98661.22;;;12.33;80.67
37066;BME280;22981;43.080;25.550;2023-04-25T03:41:02;98663.95;;;12.36;80.58
37066;BME280;22981;43.080;25.550;2023-04-25T03:43:30;98661.22;;;12.33;80.54
37066;BME280;22981;43.080;25.550;2023-04-25T03:45:57;98659.28;;;12.28;80.63
37066;BME280;22981;43.080;25.550;2023-04-25T03:48:26;98655.03;;;12.30;80.68
37066;BME280;22981;43.080;25.550;2023-04-25T03:50:54;98652.58;;;12.28;80.71
37066;BME280;22981;43.080;25.550;2023-04-25T03:53:22;98657.13;;;12.25;80.78
37066;BME280;22981;43.080;25.550;2023-04-25T03:55:49;98656.31;;;12.25;80.87
37066;BME280;22981;43.080;25.550;2023-04-25T03:58:17;98655.25;;;12.26;80.92
37066;BME280;22981;43.080;25.550;2023-04-25T04:00:45;98661.20;;;12.31;80.93
37066;BME280;22981;43.080;25.550;2023-04-25T04:03:13;98662.05;;;12.34;80.86
37066;BME280;22981;43.080;25.550;2023-04-25T04:05:40;98665.56;;;12.37;80.84
37066;BME280;22981;43.080;25.550;2023-04-25T04:08:08;98655.36;;;12.36;80.91
37066;BME280;22981;43.080;25.550;2023-04-25T04:10:35;98654.02;;;12.36;80.91
37066;BME280;22981;43.080;25.550;2023-04-25T04:13:03;98656.42;;;12.35;80.93
37066;BME280;22981;43.080;25.550;2023-04-25T04:15:31;98654.50;;;12.33;81.07
37066;BME280;22981;43.080;25.550;2023-04-25T04:17:59;98656.11;;;12.32;81.09
37066;BME280;22981;43.080;25.550;2023-04-25T04:20:31;98648.32;;;12.30;81.20
37066;BME280;22981;43.080;25.550;2023-04-25T04:23:06;98654.50;;;12.33;81.23
37066;BME280;22981;43.080;25.550;2023-04-25T04:25:43;98652.95;;;12.37;81.26
37066;BME280;22981;43.080;25.550;2023-04-25T04:28:12;98650.84;;;12.39;81.34
37066;BME280;22981;43.080;25.550;2023-04-25T04:30:39;98658.41;;;12.45;81.32
37066;BME280;22981;43.080;25.550;2023-04-25T04:33:08;98652.18;;;12.39;81.31
37066;BME280;22981;43.080;25.550;2023-04-25T04:35:35;98648.06;;;12.32;81.51
37066;BME280;22981;43.080;25.550;2023-04-25T04:38:03;98647.78;;;12.31;81.67
37066;BME280;22981;43.080;25.550;2023-04-25T04:40:31;98643.81;;;12.36;81.82
37066;BME280;22981;43.080;25.550;2023-04-25T04:42:58;98640.59;;;12.36;81.74
37066;BME280;22981;43.080;25.550;2023-04-25T04:45:26;98635.81;;;12.41;81.69
37066;BME280;22981;43.080;25.550;2023-04-25T04:47:53;98644.45;;;12.45;81.57
37066;BME280;22981;43.080;25.550;2023-04-25T04:50:21;98644.53;;;12.50;81.48
37066;BME280;22981;43.080;25.550;2023-04-25T04:52:49;98642.13;;;12.54;81.31
37066;BME280;22981;43.080;25.550;2023-04-25T04:55:17;98646.73;;;12.59;81.16
37066;BME280;22981;43.080;25.550;2023-04-25T04:57:44;98647.00;;;12.57;81.01
37066;BME280;22981;43.080;25.550;2023-04-25T05:00:12;98646.68;;;12.51;81.10
37066;BME280;22981;43.080;25.550;2023-04-25T05:02:42;98645.57;;;12.49;81.21
37066;BME280;22981;43.080;25.550;2023-04-25T05:05:09;98651.24;;;12.50;81.34
37066;BME280;22981;43.080;25.550;2023-04-25T05:07:37;98642.13;;;12.51;81.51
37066;BME280;22981;43.080;25.550;2023-04-25T05:10:06;98650.19;;;12.54;81.56
37066;BME280;22981;43.080;25.550;2023-04-25T05:12:34;98646.73;;;12.56;81.64
37066;BME280;22981;43.080;25.550;2023-04-25T05:15:01;98643.82;;;12.60;81.63
37066;BME280;22981;43.080;25.550;2023-04-25T05:17:29;98632.81;;;12.62;81.70
37066;BME280;22981;43.080;25.550;2023-04-25T05:19:57;98640.06;;;12.61;81.55
37066;BME280;22981;43.080;25.550;2023-04-25T05:22:24;98641.14;;;12.60;81.74
37066;BME280;22981;43.080;25.550;2023-04-25T05:24:52;98636.89;;;12.67;81.84
37066;BME280;22981;43.080;25.550;2023-04-25T05:27:20;98632.95;;;12.74;81.75
37066;BME280;22981;43.080;25.550;2023-04-25T05:29:48;98639.16;;;12.80;81.60
37066;BME280;22981;43.080;25.550;2023-04-25T05:32:15;98639.78;;;12.87;81.57
37066;BME280;22981;43.080;25.550;2023-04-25T05:34:43;98644.16;;;12.93;81.42
37066;BME280;22981;43.080;25.550;2023-04-25T05:37:10;98639.59;;;12.96;81.39
37066;BME280;22981;43.080;25.550;2023-04-25T05:39:38;98637.21;;;13.00;81.39
37066;BME280;22981;43.080;25.550;2023-04-25T05:42:05;98640.98;;;13.01;81.33
37066;BME280;22981;43.080;25.550;2023-04-25T05:44:33;98639.13;;;13.02;81.26
37066;BME280;22981;43.080;25.550;2023-04-25T05:47:00;98647.19;;;13.04;81.27
37066;BME280;22981;43.080;25.550;2023-04-25T05:49:30;98646.69;;;13.10;81.38
37066;BME280;22981;43.080;25.550;2023-04-25T05:51:58;98656.27;;;13.25;81.25
37066;BME280;22981;43.080;25.550;2023-04-25T05:54:25;98649.11;;;13.39;81.13
37066;BME280;22981;43.080;25.550;2023-04-25T05:56:53;98649.23;;;13.54;80.99
37066;BME280;22981;43.080;25.550;2023-04-25T05:59:20;98641.48;;;13.63;80.88
37066;BME280;22981;43.080;25.550;2023-04-25T06:01:48;98638.85;;;13.70;80.71
37066;BME280;22981;43.080;25.550;2023-04-25T06:04:15;98642.38;;;13.76;80.37
37066;BME280;22981;43.080;25.550;2023-04-25T06:06:43;98651.00;;;13.83;80.04
37066;BME280;22981;43.080;25.550;2023-04-25T06:09:11;98583.64;;;13.58;79.65
37066;BME280;22981;43.080;25.550;2023-04-25T06:11:38;98641.16;;;14.01;79.47
37066;BME280;22981;43.080;25.550;2023-04-25T06:14:06;98645.74;;;14.01;79.33
37066;BME280;22981;43.080;25.550;2023-04-25T06:16:34;98638.45;;;13.99;79.39
37066;BME280;22981;43.080;25.550;2023-04-25T06:19:01;98637.64;;;13.98;79.37
37066;BME280;22981;43.080;25.550;2023-04-25T06:21:29;98637.09;;;13.94;79.45
37066;BME280;22981;43.080;25.550;2023-04-25T06:23:57;98638.41;;;13.91;79.58
37066;BME280;22981;43.080;25.550;2023-04-25T06:26:25;98633.56;;;13.91;79.64
37066;BME280;22981;43.080;25.550;2023-04-25T06:28:52;98639.77;;;13.94;79.76
37066;BME280;22981;43.080;25.550;2023-04-25T06:31:20;98636.59;;;14.02;79.84
37066;BME280;22981;43.080;25.550;2023-04-25T06:33:48;98635.28;;;14.10;79.65
37066;BME280;22981;43.080;25.550;2023-04-25T06:36:15;98633.97;;;14.20;79.63
37066;BME280;22981;43.080;25.550;2023-04-25T06:38:43;98633.21;;;14.32;79.49
37066;BME280;22981;43.080;25.550;2023-04-25T06:41:10;98633.77;;;14.42;79.27
37066;BME280;22981;43.080;25.550;2023-04-25T06:43:38;98632.77;;;14.53;79.08
37066;BME280;22981;43.080;25.550;2023-04-25T06:46:05;98621.74;;;14.62;79.01
37066;BME280;22981;43.080;25.550;2023-04-25T06:48:33;98625.80;;;14.65;78.71
37066;BME280;22981;43.080;25.550;2023-04-25T06:51:01;98628.75;;;14.61;78.76
37066;BME280;22981;43.080;25.550;2023-04-25T06:53:28;98627.94;;;14.63;78.92
37066;BME280;22981;43.080;25.550;2023-04-25T06:55:56;98633.34;;;14.70;78.97
37066;BME280;22981;43.080;25.550;2023-04-25T06:58:23;98630.63;;;14.73;78.89
37066;BME280;22981;43.080;25.550;2023-04-25T07:00:52;98631.47;;;14.73;78.73
37066;BME280;22981;43.080;25.550;2023-04-25T07:03:20;98627.16;;;14.75;78.72
37066;BME280;22981;43.080;25.550;2023-04-25T07:05:47;98632.28;;;14.84;78.69
37066;BME280;22981;43.080;25.550;2023-04-25T07:08:17;98633.62;;;14.89;78.48
37066;BME280;22981;43.080;25.550;2023-04-25T07:10:50;98634.98;;;14.94;78.45
37066;BME280;22981;43.080;25.550;2023-04-25T07:13:20;98632.28;;;14.94;78.34
37066;BME280;22981;43.080;25.550;2023-04-25T07:15:52;98636.61;;;15.06;78.30
37066;BME280;22981;43.080;25.550;2023-04-25T07:18:30;98638.23;;;15.14;78.32
37066;BME280;22981;43.080;25.550;2023-04-25T07:20:59;98640.13;;;15.21;78.22
37066;BME280;22981;43.080;25.550;2023-04-25T07:23:27;98634.72;;;15.32;77.89
37066;BME280;22981;43.080;25.550;2023-04-25T07:25:54;98630.69;;;15.42;77.64
37066;BME280;22981;43.080;25.550;2023-04-25T07:28:22;98630.13;;;15.55;77.46
37066;BME280;22981;43.080;25.550;2023-04-25T07:30:50;98639.03;;;15.68;77.25
37066;BME280;22981;43.080;25.550;2023-04-25T07:33:17;98638.18;;;15.83;76.85
37066;BME280;22981;43.080;25.550;2023-04-25T07:35:46;98631.14;;;15.97;76.41
37066;BME280;22981;43.080;25.550;2023-04-25T07:38:14;98629.72;;;16.15;76.16
37066;BME280;22981;43.080;25.550;2023-04-25T07:40:42;98636.94;;;16.30;75.67
37066;BME280;22981;43.080;25.550;2023-04-25T07:43:09;98637.39;;;16.47;75.32
37066;BME280;22981;43.080;25.550;2023-04-25T07:45:39;98636.27;;;16.59;74.76
37066;BME280;22981;43.080;25.550;2023-04-25T07:48:06;98637.03;;;16.64;73.47
37066;BME280;22981;43.080;25.550;2023-04-25T07:50:34;98630.52;;;16.75;72.68
37066;BME280;22981;43.080;25.550;2023-04-25T07:53:01;98626.84;;;17.00;71.66
37066;BME280;22981;43.080;25.550;2023-04-25T07:55:29;98630.16;;;17.21;71.23
37066;BME280;22981;43.080;25.550;2023-04-25T07:57:57;98625.42;;;17.40;70.75
37066;BME280;22981;43.080;25.550;2023-04-25T08:00:24;98624.59;;;17.68;70.07
37066;BME280;22981;43.080;25.550;2023-04-25T08:02:52;98626.00;;;17.92;69.27
37066;BME280;22981;43.080;25.550;2023-04-25T08:05:19;98619.98;;;18.19;68.98
37066;BME280;22981;43.080;25.550;2023-04-25T08:07:47;98615.09;;;18.43;68.09
37066;BME280;22981;43.080;25.550;2023-04-25T08:10:15;98618.02;;;18.65;67.08
37066;BME280;22981;43.080;25.550;2023-04-25T08:12:42;98607.16;;;18.87;65.66
37066;BME280;22981;43.080;25.550;2023-04-25T08:15:10;98609.84;;;19.06;64.97
37066;BME280;22981;43.080;25.550;2023-04-25T08:17:43;98608.89;;;19.32;64.19
37066;BME280;22981;43.080;25.550;2023-04-25T08:20:13;98605.94;;;19.61;62.78
37066;BME280;22981;43.080;25.550;2023-04-25T08:22:41;98604.45;;;19.82;60.19
37066;BME280;22981;43.080;25.550;2023-04-25T08:25:08;98608.34;;;20.06;60.15
37066;BME280;22981;43.080;25.550;2023-04-25T08:27:36;98596.58;;;20.36;59.42
37066;BME280;22981;43.080;25.550;2023-04-25T08:30:06;98598.09;;;20.28;58.85
37066;BME280;22981;43.080;25.550;2023-04-25T08:33:04;98605.84;;;20.21;58.16
37066;BME280;22981;43.080;25.550;2023-04-25T08:35:31;98608.47;;;20.12;58.75
37066;BME280;22981;43.080;25.550;2023-04-25T08:38:00;98605.53;;;19.84;58.97
37066;BME280;22981;43.080;25.550;2023-04-25T08:40:28;98606.81;;;19.56;59.08
37066;BME280;22981;43.080;25.550;2023-04-25T08:43:00;98601.48;;;19.51;58.98
37066;BME280;22981;43.080;25.550;2023-04-25T08:45:31;98599.01;;;19.52;58.81
37066;BME280;22981;43.080;25.550;2023-04-25T08:47:59;98588.25;;;19.47;58.34
37066;BME280;22981;43.080;25.550;2023-04-25T08:50:28;98586.06;;;19.79;57.08
37066;BME280;22981;43.080;25.550;2023-04-25T08:52:58;98583.33;;;20.07;56.12
37066;BME280;22981;43.080;25.550;2023-04-25T08:55:28;98582.22;;;20.21;55.55
37066;BME280;22981;43.080;25.550;2023-04-25T08:57:57;98585.34;;;20.15;54.74
37066;BME280;22981;43.080;25.550;2023-04-25T09:00:25;98590.03;;;19.84;54.91
37066;BME280;22981;43.080;25.550;2023-04-25T09:02:53;98585.19;;;19.51;55.56
37066;BME280;22981;43.080;25.550;2023-04-25T09:05:21;98592.05;;;19.32;56.78
37066;BME280;22981;43.080;25.550;2023-04-25T09:07:49;98588.88;;;19.58;57.31
37066;BME280;22981;43.080;25.550;2023-04-25T09:10:17;98586.20;;;19.99;56.95
37066;BME280;22981;43.080;25.550;2023-04-25T09:12:44;98587.16;;;20.06;56.51
37066;BME280;22981;43.080;25.550;2023-04-25T09:15:13;98587.41;;;20.07;55.55
37066;BME280;22981;43.080;25.550;2023-04-25T09:17:42;98592.09;;;20.17;55.21
37066;BME280;22981;43.080;25.550;2023-04-25T09:20:12;98584.27;;;20.27;54.40
37066;BME280;22981;43.080;25.550;2023-04-25T09:22:41;98582.92;;;20.38;54.06
37066;BME280;22981;43.080;25.550;2023-04-25T09:25:11;98581.38;;;20.48;53.78
37066;BME280;22981;43.080;25.550;2023-04-25T09:27:51;98587.51;;;20.40;53.86
37066;BME280;22981;43.080;25.550;2023-04-25T09:30:28;98585.66;;;20.63;53.46
37066;BME280;22981;43.080;25.550;2023-04-25T09:32:48;98594.34;;;21.10;53.16
37066;BME280;22981;43.080;25.550;2023-04-25T09:35:23;98586.91;;;21.47;52.96
37066;BME280;22981;43.080;25.550;2023-04-25T09:37:55;98584.45;;;21.68;52.77
37066;BME280;22981;43.080;25.550;2023-04-25T09:40:23;98585.03;;;21.56;53.00
37066;BME280;22981;43.080;25.550;2023-04-25T09:42:51;98593.91;;;21.17;52.68
37066;BME280;22981;43.080;25.550;2023-04-25T09:45:19;98620.02;;;20.59;52.40
37066;BME280;22981;43.080;25.550;2023-04-25T09:47:47;98630.98;;;19.88;52.82
37066;BME280;22981;43.080;25.550;2023-04-25T09:50:17;98633.92;;;19.10;53.60
37066;BME280;22981;43.080;25.550;2023-04-25T09:52:45;98662.53;;;18.40;55.13
37066;BME280;22981;43.080;25.550;2023-04-25T09:55:14;98689.76;;;17.80;57.34
37066;BME280;22981;43.080;25.550;2023-04-25T10:11:09;98690.55;;;15.21;64.97
37066;BME280;22981;43.080;25.550;2023-04-25T10:13:40;98691.61;;;15.15;65.61
37066;BME280;22981;43.080;25.550;2023-04-25T10:16:08;98693.22;;;15.11;66.33
37066;BME280;22981;43.080;25.550;2023-04-25T10:18:35;98700.77;;;15.01;66.89
37066;BME280;22981;43.080;25.550;2023-04-25T10:21:05;98701.80;;;14.80;67.12
37066;BME280;22981;43.080;25.550;2023-04-25T10:23:33;98688.28;;;14.67;67.61
37066;BME280;22981;43.080;25.550;2023-04-25T10:26:02;98676.97;;;14.67;68.36
37066;BME280;22981;43.080;25.550;2023-04-25T10:28:29;98666.22;;;14.70;69.10
37066;BME280;22981;43.080;25.550;2023-04-25T10:31:00;98666.47;;;14.66;69.32
37066;BME280;22981;43.080;25.550;2023-04-25T10:33:37;98668.85;;;14.55;69.56
37066;BME280;22981;43.080;25.550;2023-04-25T10:36:20;98653.77;;;14.53;69.82
37066;BME280;22981;43.080;25.550;2023-04-25T10:38:45;98629.02;;;14.62;70.17
37066;BME280;22981;43.080;25.550;2023-04-25T10:41:13;98612.32;;;14.72;70.50
37066;BME280;22981;43.080;25.550;2023-04-25T10:43:43;98617.18;;;14.81;70.95
37066;BME280;22981;43.080;25.550;2023-04-25T10:46:22;98625.28;;;14.83;71.21
37066;BME280;22981;43.080;25.550;2023-04-25T10:48:52;98621.78;;;14.98;71.74
37066;BME280;22981;43.080;25.550;2023-04-25T10:51:28;98612.87;;;15.41;70.87
37066;BME280;22981;43.080;25.550;2023-04-25T10:53:59;98601.19;;;15.91;70.26
37066;BME280;22981;43.080;25.550;2023-04-25T10:56:29;98599.38;;;16.36;69.33
37066;BME280;22981;43.080;25.550;2023-04-25T10:59:16;98596.75;;;16.65;68.75
37066;BME280;22981;43.080;25.550;2023-04-25T11:01:46;98607.00;;;16.76;67.85
37066;BME280;22981;43.080;25.550;2023-04-25T11:04:35;98610.12;;;16.49;67.60
37066;BME280;22981;43.080;25.550;2023-04-25T11:09:35;98614.92;;;16.02;68.62
37066;BME280;22981;43.080;25.550;2023-04-25T11:12:03;98622.45;;;16.06;68.96
37066;BME280;22981;43.080;25.550;2023-04-25T11:14:31;98615.98;;;16.04;69.32
37066;BME280;22981;43.080;25.550;2023-04-25T11:17:00;98623.58;;;15.94;69.89
37066;BME280;22981;43.080;25.550;2023-04-25T11:19:29;98623.32;;;15.91;70.18
37066;BME280;22981;43.080;25.550;2023-04-25T11:21:58;98624.94;;;15.94;70.22
37066;BME280;22981;43.080;25.550;2023-04-25T11:24:30;98622.70;;;16.09;70.22
37066;BME280;22981;43.080;25.550;2023-04-25T11:27:02;98620.92;;;16.46;69.82
37066;BME280;22981;43.080;25.550;2023-04-25T11:29:30;98619.32;;;16.92;68.98
37066;BME280;22981;43.080;25.550;2023-04-25T11:31:58;98621.48;;;17.24;68.38
37066;BME280;22981;43.080;25.550;2023-04-25T11:34:30;98614.44;;;17.55;67.86
37066;BME280;22981;43.080;25.550;2023-04-25T11:36:59;98613.30;;;17.90;68.29
37066;BME280;22981;43.080;25.550;2023-04-25T11:39:28;98599.82;;;18.28;67.26
37066;BME280;22981;43.080;25.550;2023-04-25T11:41:56;98595.64;;;18.57;66.77
37066;BME280;22981;43.080;25.550;2023-04-25T11:44:24;98586.66;;;18.81;65.98
37066;BME280;22981;43.080;25.550;2023-04-25T11:46:52;98582.06;;;18.97;65.42
37066;BME280;22981;43.080;25.550;2023-04-25T11:49:20;98565.39;;;19.04;64.31
37066;BME280;22981;43.080;25.550;2023-04-25T11:51:48;98567.79;;;19.06;63.73
37066;BME280;22981;43.080;25.550;2023-04-25T11:54:16;98567.45;;;19.10;63.62
37066;BME280;22981;43.080;25.550;2023-04-25T11:56:45;98559.00;;;18.97;63.14
37066;BME280;22981;43.080;25.550;2023-04-25T11:59:13;98548.28;;;18.71;62.97
37066;BME280;22981;43.080;25.550;2023-04-25T12:01:48;98542.98;;;18.63;63.81
37066;BME280;22981;43.080;25.550;2023-04-25T12:06:42;98539.25;;;19.11;62.42
37066;BME280;22981;43.080;25.550;2023-04-25T12:09:13;98533.17;;;19.16;62.18
37066;BME280;22981;43.080;25.550;2023-04-25T12:11:43;98532.08;;;19.31;62.03
37066;BME280;22981;43.080;25.550;2023-04-25T12:14:12;98536.08;;;19.36;61.52
37066;BME280;22981;43.080;25.550;2023-04-25T12:16:46;98540.03;;;19.28;61.20
37066;BME280;22981;43.080;25.550;2023-04-25T12:19:15;98540.94;;;19.07;61.69
37066;BME280;22981;43.080;25.550;2023-04-25T12:21:43;98527.62;;;18.75;61.53
37066;BME280;22981;43.080;25.550;2023-04-25T12:24:18;98521.67;;;18.38;61.96
37066;BME280;22981;43.080;25.550;2023-04-25T12:27:06;98516.34;;;18.11;62.58
37066;BME280;22981;43.080;25.550;2023-04-25T12:29:35;98513.45;;;17.86;63.09
37066;BME280;22981;43.080;25.550;2023-04-25T12:32:02;98509.28;;;17.70;63.87
37066;BME280;22981;43.080;25.550;2023-04-25T12:34:33;98512.86;;;17.65;64.26
37066;BME280;22981;43.080;25.550;2023-04-25T12:37:02;98520.59;;;17.50;64.58
37066;BME280;22981;43.080;25.550;2023-04-25T12:39:30;98534.06;;;17.32;64.87
37066;BME280;22981;43.080;25.550;2023-04-25T12:41:58;98543.41;;;17.15;64.73
37066;BME280;22981;43.080;25.550;2023-04-25T12:44:26;98541.88;;;17.04;64.63
37066;BME280;22981;43.080;25.550;2023-04-25T12:46:54;98527.66;;;16.93;64.70
37066;BME280;22981;43.080;25.550;2023-04-25T12:49:21;98526.36;;;16.86;64.87
37066;BME280;22981;43.080;25.550;2023-04-25T12:51:49;98536.97;;;16.80;65.21
37066;BME280;22981;43.080;25.550;2023-04-25T12:54:18;98545.64;;;16.76;65.91
37066;BME280;22981;43.080;25.550;2023-04-25T12:56:45;98543.75;;;16.72;66.56
37066;BME280;22981;43.080;25.550;2023-04-25T12:59:13;98562.71;;;16.67;67.42
37066;BME280;22981;43.080;25.550;2023-04-25T13:01:41;98561.15;;;16.58;67.88
37066;BME280;22981;43.080;25.550;2023-04-25T13:04:09;98562.80;;;16.51;68.35
37066;BME280;22981;43.080;25.550;2023-04-25T13:06:36;98554.48;;;16.45;68.70
37066;BME280;22981;43.080;25.550;2023-04-25T13:09:04;98566.94;;;16.39;69.03
37066;BME280;22981;43.080;25.550;2023-04-25T13:11:33;98576.42;;;16.31;69.52
37066;BME280;22981;43.080;25.550;2023-04-25T13:14:01;98575.40;;;16.22;70.15
37066;BME280;22981;43.080;25.550;2023-04-25T13:16:31;98568.97;;;16.15;70.68